createdAt,value
2017-12-13T00:01:09.207Z,7.47
2017-12-13T00:03:36.653Z,7.70
2017-12-13T00:06:04.115Z,7.30
2017-12-13T00:08:31.580Z,6.73
2017-12-13T00:10:59.033Z,8.70
2017-12-13T00:13:26.481Z,7.40
2017-12-13T00:15:53.949Z,6.43
2017-12-13T00:18:21.403Z,7.67
2017-12-13T00:20:48.921Z,6.27
2017-12-13T00:23:16.391Z,6.73
2017-12-13T00:25:44.674Z,7.27
2017-12-13T00:28:12.125Z,7.60
2017-12-13T00:30:39.566Z,7.50
2017-12-13T00:33:07.023Z,6.50
2017-12-13T00:35:34.469Z,6.77
2017-12-13T00:38:02.003Z,6.10
2017-12-13T00:40:29.459Z,6.93
2017-12-13T00:42:56.935Z,5.80
2017-12-13T00:45:24.379Z,7.17
2017-12-13T00:47:51.903Z,8.33
2017-12-13T00:50:19.347Z,8.90
2017-12-13T00:52:46.787Z,8.00
2017-12-13T00:55:14.238Z,8.50
2017-12-13T00:57:41.679Z,8.20
2017-12-13T01:00:09.158Z,9.07
2017-12-13T01:02:36.596Z,9.13
2017-12-13T01:05:04.061Z,9.67
2017-12-13T01:07:31.504Z,9.80
2017-12-13T01:09:59.019Z,8.87
2017-12-13T01:12:26.490Z,9.57
2017-12-13T01:14:53.965Z,10.63
2017-12-13T01:17:21.454Z,10.87
2017-12-13T01:19:48.910Z,10.77
2017-12-13T01:22:16.379Z,10.20
2017-12-13T01:24:43.822Z,10.33
2017-12-13T01:27:11.296Z,12.10
2017-12-13T01:29:38.745Z,8.97
2017-12-13T01:32:06.226Z,9.13
2017-12-13T01:34:33.671Z,7.23
2017-12-13T01:37:01.147Z,6.87
2017-12-13T01:39:28.614Z,7.03
2017-12-13T01:41:56.093Z,6.30
2017-12-13T01:44:23.549Z,5.40
2017-12-13T01:46:51.069Z,7.00
2017-12-13T01:49:18.540Z,6.27
2017-12-13T01:51:46.092Z,6.37
2017-12-13T01:54:13.565Z,6.60
2017-12-13T01:56:41.038Z,6.10
2017-12-13T01:59:08.570Z,6.93
2017-12-13T02:01:36.026Z,5.80
2017-12-13T02:04:03.491Z,5.93
2017-12-13T02:06:35.022Z,5.27
2017-12-13T02:09:02.487Z,5.70
2017-12-13T02:11:30.049Z,5.17
2017-12-13T02:13:57.557Z,6.80
2017-12-13T02:16:25.003Z,7.37
2017-12-13T02:18:52.511Z,7.50
2017-12-13T02:21:19.973Z,7.80
2017-12-13T02:26:20.321Z,6.93
2017-12-13T02:28:47.801Z,7.70
2017-12-13T02:31:15.311Z,6.97
2017-12-13T02:33:42.788Z,7.80
2017-12-13T02:36:10.249Z,6.13
2017-12-13T02:38:37.705Z,6.40
2017-12-13T02:41:05.251Z,5.93
2017-12-13T02:43:32.728Z,5.37
2017-12-13T02:46:00.220Z,5.27
2017-12-13T02:48:27.677Z,5.23
2017-12-13T02:50:55.159Z,5.27
2017-12-13T02:53:22.644Z,5.87
2017-12-13T02:55:50.145Z,5.60
2017-12-13T02:58:17.621Z,5.73
2017-12-13T03:00:45.108Z,6.13
2017-12-13T03:03:12.568Z,5.93
2017-12-13T03:05:40.041Z,5.13
2017-12-13T03:08:07.509Z,5.80
2017-12-13T03:10:35.043Z,5.10
2017-12-13T03:13:02.541Z,5.93
2017-12-13T03:15:30.029Z,6.07
2017-12-13T03:17:57.480Z,4.67
2017-12-13T03:20:24.997Z,5.10
2017-12-13T03:22:52.525Z,4.80
2017-12-13T03:25:19.993Z,4.80
2017-12-13T03:27:47.548Z,4.20
2017-12-13T03:30:15.002Z,5.30
2017-12-13T03:32:42.481Z,4.40
2017-12-13T03:35:10.026Z,5.07
2017-12-13T03:37:37.498Z,3.93
2017-12-13T03:40:04.969Z,4.13
2017-12-13T03:42:32.494Z,5.07
2017-12-13T03:45:00.060Z,3.90
2017-12-13T03:47:27.537Z,4.23
2017-12-13T03:49:55.004Z,4.03
2017-12-13T03:52:22.507Z,4.33
2017-12-13T03:54:49.967Z,3.80
2017-12-13T03:57:17.445Z,4.77
2017-12-13T03:59:44.902Z,3.33
2017-12-13T04:02:12.347Z,4.10
2017-12-13T04:04:39.828Z,4.50
2017-12-13T04:07:07.276Z,4.03
2017-12-13T04:09:34.758Z,4.20
2017-12-13T04:12:02.233Z,4.30
2017-12-13T04:14:29.713Z,4.90
2017-12-13T04:16:57.423Z,4.63
2017-12-13T04:19:24.953Z,3.80
2017-12-13T04:21:52.442Z,4.60
2017-12-13T04:24:19.921Z,4.00
2017-12-13T04:26:47.377Z,4.60
2017-12-13T04:29:14.858Z,4.90
2017-12-13T04:31:42.313Z,4.53
2017-12-13T04:34:09.794Z,4.00
2017-12-13T04:36:37.240Z,4.83
2017-12-13T04:39:04.754Z,4.23
2017-12-13T04:41:32.217Z,4.97
2017-12-13T04:43:59.723Z,4.30
2017-12-13T04:46:27.191Z,4.27
2017-12-13T04:48:54.636Z,3.37
2017-12-13T04:51:22.118Z,4.23
2017-12-13T04:53:49.554Z,4.40
2017-12-13T04:56:17.026Z,3.20
2017-12-13T04:58:44.474Z,4.53
2017-12-13T05:01:11.954Z,3.87
2017-12-13T05:03:39.394Z,3.80
2017-12-13T05:06:06.855Z,3.70
2017-12-13T05:08:34.313Z,3.93
2017-12-13T05:11:01.815Z,3.40
2017-12-13T05:13:29.261Z,3.40
2017-12-13T05:15:56.736Z,4.40
2017-12-13T05:18:24.197Z,3.37
2017-12-13T05:20:51.681Z,3.23
2017-12-13T05:23:19.140Z,3.93
2017-12-13T05:25:46.809Z,2.77
2017-12-13T05:28:14.288Z,3.17
2017-12-13T05:30:41.805Z,3.97
2017-12-13T05:33:09.309Z,3.40
2017-12-13T05:35:36.769Z,2.80
2017-12-13T05:38:04.273Z,2.30
2017-12-13T05:40:31.729Z,3.27
2017-12-13T05:42:59.289Z,3.33
2017-12-13T05:45:26.854Z,2.20
2017-12-13T05:47:54.405Z,2.90
2017-12-13T05:50:21.863Z,2.20
2017-12-13T05:52:49.323Z,3.57
2017-12-13T05:55:16.776Z,3.50
2017-12-13T05:57:44.340Z,2.47
2017-12-13T06:00:11.856Z,2.70
2017-12-13T06:02:39.345Z,2.63
2017-12-13T06:05:06.800Z,2.50
2017-12-13T06:07:34.264Z,2.50
2017-12-13T06:10:01.742Z,2.17
2017-12-13T06:12:29.219Z,2.47
2017-12-13T06:14:56.776Z,2.77
2017-12-13T06:17:24.237Z,3.40
2017-12-13T06:19:51.721Z,4.37
2017-12-13T06:22:19.178Z,3.33
2017-12-13T06:24:46.661Z,2.83
2017-12-13T06:27:14.124Z,2.80
2017-12-13T06:29:41.605Z,2.70
2017-12-13T06:32:09.059Z,2.93
2017-12-13T06:34:36.548Z,2.93
2017-12-13T06:37:04.014Z,3.93
2017-12-13T06:39:31.493Z,3.80
2017-12-13T06:41:58.949Z,3.77
2017-12-13T06:44:26.636Z,3.20
2017-12-13T06:46:54.086Z,4.43
2017-12-13T06:49:21.622Z,2.93
2017-12-13T06:51:49.072Z,2.63
2017-12-13T06:54:16.550Z,3.57
2017-12-13T06:56:44.027Z,3.50
2017-12-13T06:59:11.507Z,3.80
2017-12-13T07:01:38.951Z,4.73
2017-12-13T07:04:06.395Z,4.70
2017-12-13T07:06:33.855Z,4.40
2017-12-13T07:09:01.371Z,5.37
2017-12-13T07:11:28.802Z,4.93
2017-12-13T07:13:56.271Z,6.87
2017-12-13T07:16:23.755Z,7.70
2017-12-13T07:18:51.325Z,8.40
2017-12-13T07:21:18.795Z,6.70
2017-12-13T07:23:46.243Z,6.20
2017-12-13T07:26:13.725Z,6.40
2017-12-13T07:28:41.219Z,5.80
2017-12-13T07:31:08.701Z,3.67
2017-12-13T07:33:36.155Z,3.13
2017-12-13T07:36:03.623Z,3.60
2017-12-13T07:38:31.184Z,4.83
2017-12-13T07:40:58.648Z,4.97
2017-12-13T07:43:26.104Z,4.50
2017-12-13T07:45:53.574Z,3.10
2017-12-13T07:48:21.080Z,4.87
2017-12-13T07:50:48.555Z,4.67
2017-12-13T07:53:16.031Z,4.80
2017-12-13T07:55:43.485Z,7.20
2017-12-13T07:58:10.950Z,3.10
2017-12-13T08:00:38.408Z,5.50
2017-12-13T08:03:05.871Z,5.20
2017-12-13T08:05:33.333Z,4.53
2017-12-13T08:08:00.866Z,3.93
2017-12-13T08:10:28.295Z,3.97
2017-12-13T08:12:55.780Z,2.77
2017-12-13T08:15:23.231Z,3.13
2017-12-13T08:17:50.695Z,2.97
2017-12-13T08:20:18.147Z,2.50
2017-12-13T08:22:45.662Z,2.73
2017-12-13T08:25:13.138Z,2.70
2017-12-13T08:27:40.612Z,2.77
2017-12-13T08:30:08.078Z,2.43
2017-12-13T08:32:35.558Z,2.70
2017-12-13T08:35:03.022Z,2.33
2017-12-13T08:37:30.497Z,2.13
2017-12-13T08:39:57.977Z,1.60
2017-12-13T08:42:25.457Z,2.20
2017-12-13T08:44:52.937Z,2.80
2017-12-13T08:47:20.398Z,2.57
2017-12-13T08:49:47.869Z,2.30
2017-12-13T08:52:15.480Z,2.13
2017-12-13T08:54:43.089Z,2.00
2017-12-13T08:57:10.582Z,2.07
2017-12-13T08:59:38.054Z,2.40
2017-12-13T09:02:05.511Z,2.37
2017-12-13T09:04:32.985Z,5.30
2017-12-13T09:07:00.589Z,3.30
2017-12-13T09:09:28.852Z,3.13
2017-12-13T09:11:56.696Z,2.17
2017-12-13T09:14:24.159Z,2.23
2017-12-13T09:16:51.743Z,2.27
2017-12-13T09:19:19.209Z,2.20
2017-12-13T09:21:46.906Z,1.63
2017-12-13T09:24:15.091Z,1.00
2017-12-13T09:26:42.576Z,1.60
2017-12-13T09:29:10.654Z,1.70
2017-12-13T09:31:38.124Z,2.00
2017-12-13T09:34:05.614Z,1.70
2017-12-13T09:36:33.089Z,1.50
2017-12-13T09:39:00.891Z,2.10
2017-12-13T09:41:28.727Z,1.33
2017-12-13T09:43:56.314Z,2.57
2017-12-13T09:46:23.837Z,1.60
2017-12-13T09:48:51.289Z,1.17
2017-12-13T09:51:18.767Z,1.77
2017-12-13T09:53:46.214Z,1.00
2017-12-13T09:56:13.701Z,1.80
2017-12-13T09:58:41.154Z,1.53
2017-12-13T10:01:08.612Z,1.43
2017-12-13T10:03:36.081Z,1.33
2017-12-13T10:06:03.601Z,1.20
2017-12-13T10:08:31.067Z,0.90
2017-12-13T10:10:58.507Z,1.50
2017-12-13T10:13:25.974Z,1.47
2017-12-13T10:18:27.293Z,2.27
2017-12-13T10:20:54.740Z,1.53
2017-12-13T10:23:24.838Z,1.60
2017-12-13T10:25:52.428Z,4.60
2017-12-13T10:28:19.887Z,2.13
2017-12-13T10:30:47.884Z,2.00
2017-12-13T10:33:16.262Z,1.13
2017-12-13T10:35:44.108Z,2.27
2017-12-13T10:38:12.285Z,1.63
2017-12-13T10:40:40.264Z,1.33
2017-12-13T10:43:07.902Z,1.50
2017-12-13T10:45:35.528Z,1.00
2017-12-13T10:48:03.122Z,1.67
2017-12-13T10:50:30.613Z,2.07
2017-12-13T10:52:58.174Z,1.07
2017-12-13T10:55:26.747Z,1.30
2017-12-13T10:57:54.272Z,3.13
2017-12-13T11:00:21.767Z,2.67
2017-12-13T11:02:49.612Z,3.50
2017-12-13T11:05:17.109Z,1.50
2017-12-13T11:07:44.585Z,1.07
2017-12-13T11:10:12.089Z,1.70
2017-12-13T11:12:39.567Z,1.43
2017-12-13T11:15:07.184Z,1.00
2017-12-13T11:17:35.022Z,1.97
2017-12-13T11:20:03.195Z,2.70
2017-12-13T11:22:30.776Z,2.13
2017-12-13T11:24:58.345Z,2.33
2017-12-13T11:27:25.779Z,1.23
2017-12-13T11:29:53.239Z,2.20
2017-12-13T11:32:21.313Z,2.40
2017-12-13T11:34:49.367Z,1.07
2017-12-13T11:37:16.865Z,1.57
2017-12-13T11:39:44.333Z,1.80
2017-12-13T11:42:11.803Z,0.83
2017-12-13T11:44:39.262Z,1.30
2017-12-13T11:47:06.699Z,1.47
2017-12-13T11:49:34.159Z,0.97
2017-12-13T11:52:01.649Z,1.17
2017-12-13T11:54:34.567Z,0.90
2017-12-13T11:57:02.039Z,0.70
2017-12-13T11:59:29.496Z,0.90
2017-12-13T12:01:56.969Z,1.27
2017-12-13T12:04:24.456Z,1.00
2017-12-13T12:06:51.919Z,1.00
2017-12-13T12:09:19.866Z,1.17
2017-12-13T12:11:47.335Z,0.90
2017-12-13T12:14:14.776Z,1.20
2017-12-13T12:16:42.324Z,0.70
2017-12-13T12:19:09.875Z,1.20
2017-12-13T12:21:37.351Z,0.93
2017-12-13T12:24:04.853Z,0.50
2017-12-13T12:26:32.323Z,0.90
2017-12-13T12:28:59.814Z,1.47
2017-12-13T12:31:27.259Z,0.90
2017-12-13T12:33:54.747Z,0.90
2017-12-13T12:36:22.194Z,1.27
2017-12-13T12:38:49.666Z,0.80
2017-12-13T12:41:17.119Z,0.83
2017-12-13T12:43:44.590Z,0.90
2017-12-13T12:46:12.041Z,0.83
2017-12-13T12:48:39.518Z,1.07
2017-12-13T12:51:06.978Z,0.77
2017-12-13T12:53:34.467Z,0.70
2017-12-13T12:56:01.932Z,0.80
2017-12-13T12:58:29.405Z,2.17
2017-12-13T13:00:57.001Z,2.00
2017-12-13T13:03:24.467Z,1.07
2017-12-13T13:05:51.921Z,1.00
2017-12-13T13:08:19.398Z,0.77
2017-12-13T13:10:46.844Z,1.13
2017-12-13T13:13:14.287Z,0.90
2017-12-13T13:15:41.810Z,0.70
2017-12-13T13:18:09.251Z,1.13
2017-12-13T13:20:36.711Z,1.33
2017-12-13T13:23:04.255Z,0.80
2017-12-13T13:25:31.711Z,0.97
2017-12-13T13:27:59.169Z,1.33
2017-12-13T13:30:26.646Z,0.90
2017-12-13T13:32:54.087Z,1.30
2017-12-13T13:35:21.658Z,1.03
2017-12-13T13:37:49.166Z,0.57
2017-12-13T13:40:16.645Z,0.90
2017-12-13T13:42:44.140Z,0.80
2017-12-13T13:45:11.795Z,0.97
2017-12-13T13:47:39.229Z,0.57
2017-12-13T13:50:06.699Z,0.70
2017-12-13T13:52:34.158Z,0.80
2017-12-13T13:55:01.629Z,0.70
2017-12-13T13:57:29.081Z,0.90
2017-12-13T14:02:30.479Z,0.70
2017-12-13T14:04:57.953Z,0.77
2017-12-13T14:07:25.405Z,0.70
2017-12-13T14:09:52.865Z,0.87
2017-12-13T14:12:20.341Z,0.70
2017-12-13T14:14:47.789Z,0.87
2017-12-13T14:17:15.261Z,0.73
2017-12-13T14:19:42.713Z,1.00
2017-12-13T14:22:10.193Z,0.50
2017-12-13T14:24:37.653Z,0.70
2017-12-13T14:27:05.119Z,0.80
2017-12-13T14:29:32.577Z,0.50
2017-12-13T14:32:00.054Z,0.80
2017-12-13T14:34:27.515Z,0.60
2017-12-13T14:36:54.995Z,0.77
2017-12-13T14:39:22.480Z,0.87
2017-12-13T14:41:49.958Z,0.50
2017-12-13T14:44:17.414Z,1.10
2017-12-13T14:46:44.874Z,1.23
2017-12-13T14:49:12.375Z,0.77
2017-12-13T14:51:39.837Z,1.17
2017-12-13T14:54:07.317Z,1.63
2017-12-13T14:56:34.773Z,1.57
2017-12-13T14:59:02.229Z,1.93
2017-12-13T15:01:29.681Z,1.47
2017-12-13T15:03:57.153Z,2.47
2017-12-13T15:06:24.609Z,1.50
2017-12-13T15:08:52.167Z,0.80
2017-12-13T15:11:19.642Z,1.50
2017-12-13T15:13:47.114Z,1.37
2017-12-13T15:16:14.607Z,0.70
2017-12-13T15:18:42.057Z,1.37
2017-12-13T15:21:09.529Z,4.63
2017-12-13T15:23:36.980Z,8.40
2017-12-13T15:26:04.457Z,3.97
2017-12-13T15:28:32.065Z,1.23
2017-12-13T15:30:59.555Z,11.23
2017-12-13T15:33:27.042Z,2.47
2017-12-13T15:35:54.500Z,0.47
2017-12-13T15:38:21.943Z,0.60
2017-12-13T15:40:49.418Z,0.50
2017-12-13T15:43:16.871Z,0.40
2017-12-13T15:45:44.476Z,0.30
2017-12-13T15:53:56.880Z,0.30
2017-12-13T15:56:24.489Z,0.40
2017-12-13T15:58:52.131Z,0.40
2017-12-13T16:01:19.613Z,0.30
2017-12-13T16:03:47.108Z,0.73
2017-12-13T16:06:14.601Z,0.67
2017-12-13T16:08:42.054Z,0.40
2017-12-13T16:11:09.530Z,1.53
2017-12-13T16:13:37.029Z,0.50
2017-12-13T16:16:04.521Z,0.30
2017-12-13T16:18:32.049Z,0.30
2017-12-13T16:20:59.501Z,0.40
2017-12-13T16:23:26.979Z,0.60
2017-12-13T16:25:54.471Z,0.53
2017-12-13T16:28:21.949Z,0.70
2017-12-13T16:30:49.401Z,0.60
2017-12-13T16:33:16.889Z,0.33
2017-12-13T16:35:44.349Z,0.30
2017-12-13T16:38:11.833Z,2.73
2017-12-13T16:40:39.303Z,0.93
2017-12-13T16:43:06.785Z,0.83
2017-12-13T16:45:34.263Z,0.97
2017-12-13T16:48:01.735Z,1.23
2017-12-13T16:50:29.197Z,0.40
2017-12-13T16:52:56.677Z,0.80
2017-12-13T16:55:24.143Z,2.63
2017-12-13T16:57:51.625Z,0.90
2017-12-13T17:00:19.083Z,0.50
2017-12-13T17:02:46.563Z,0.67
2017-12-13T17:05:14.030Z,0.30
2017-12-13T17:07:41.485Z,0.40
2017-12-13T17:10:08.963Z,0.47
2017-12-13T17:12:36.414Z,0.90
2017-12-13T17:15:03.886Z,0.40
2017-12-13T17:17:31.535Z,0.40
2017-12-13T17:19:59.085Z,0.60
2017-12-13T17:22:26.532Z,0.50
2017-12-13T17:24:54.010Z,0.50
2017-12-13T17:27:21.470Z,1.00
2017-12-13T17:29:48.941Z,0.50
2017-12-13T17:32:16.390Z,0.40
2017-12-13T17:34:43.879Z,0.50
2017-12-13T17:37:11.329Z,0.50
2017-12-13T17:39:38.811Z,0.40
2017-12-13T17:42:06.276Z,0.33
2017-12-13T17:44:33.734Z,0.70
2017-12-13T17:47:01.210Z,0.50
2017-12-13T17:49:28.661Z,0.80
2017-12-13T17:51:56.137Z,1.17
2017-12-13T17:54:23.585Z,0.53
2017-12-13T17:56:51.080Z,1.50
2017-12-13T17:59:18.536Z,0.60
2017-12-13T18:01:46.016Z,0.50
2017-12-13T18:04:13.473Z,0.70
2017-12-13T18:06:40.950Z,0.50
2017-12-13T18:09:08.428Z,24.90
2017-12-13T18:11:35.903Z,2.40
2017-12-13T18:14:03.355Z,0.40
2017-12-13T18:16:30.817Z,0.60
2017-12-13T18:18:58.261Z,0.47
2017-12-13T18:21:25.745Z,0.40
2017-12-13T18:23:53.205Z,0.40
2017-12-13T18:26:20.681Z,0.50
2017-12-13T18:28:48.146Z,0.50
2017-12-13T18:31:15.773Z,0.50
2017-12-13T18:33:43.229Z,0.50
2017-12-13T18:36:10.965Z,0.60
2017-12-13T18:38:38.448Z,0.60
2017-12-13T18:41:05.905Z,0.73
2017-12-13T18:43:33.385Z,0.50
2017-12-13T18:46:00.845Z,0.70
2017-12-13T18:48:28.452Z,0.77
2017-12-13T18:50:55.995Z,0.77
2017-12-13T18:53:23.601Z,0.60
2017-12-13T18:55:51.055Z,0.67
2017-12-13T18:58:18.529Z,0.90
2017-12-13T19:00:45.981Z,0.63
2017-12-13T19:03:13.440Z,0.83
2017-12-13T19:05:40.906Z,0.80
2017-12-13T19:08:08.390Z,1.00
2017-12-13T19:10:35.853Z,1.00
2017-12-13T19:13:03.346Z,0.63
2017-12-13T19:15:30.826Z,0.80
2017-12-13T19:17:58.280Z,0.73
2017-12-13T19:20:25.873Z,0.90
2017-12-13T19:22:53.327Z,1.03
2017-12-13T19:25:20.824Z,0.90
2017-12-13T19:27:48.274Z,1.10
2017-12-13T19:30:15.978Z,1.10
2017-12-13T19:32:43.450Z,1.37
2017-12-13T19:35:10.929Z,1.47
2017-12-13T19:37:38.380Z,1.60
2017-12-13T19:40:05.847Z,1.73
2017-12-13T19:42:33.287Z,1.60
2017-12-13T19:45:00.842Z,1.30
2017-12-13T19:47:28.309Z,1.70
2017-12-13T19:49:55.828Z,1.73
2017-12-13T19:52:23.281Z,1.60
2017-12-13T19:54:50.741Z,1.00
2017-12-13T19:57:18.219Z,0.80
2017-12-13T19:59:45.669Z,2.30
2017-12-13T20:02:13.145Z,1.83
2017-12-13T20:04:40.602Z,0.90
2017-12-13T20:07:08.086Z,2.13
2017-12-13T20:09:35.658Z,1.23
2017-12-13T20:12:03.175Z,1.13
2017-12-13T20:14:30.629Z,1.13
2017-12-13T20:16:58.109Z,0.80
2017-12-13T20:19:25.562Z,1.37
2017-12-13T20:21:53.040Z,1.80
2017-12-13T20:24:20.482Z,1.47
2017-12-13T20:26:47.965Z,0.73
2017-12-13T20:29:15.482Z,0.87
2017-12-13T20:31:42.990Z,1.20
2017-12-13T20:34:10.531Z,0.80
2017-12-13T20:36:38.031Z,1.50
2017-12-13T20:39:05.505Z,0.97
2017-12-13T20:41:32.969Z,0.70
2017-12-13T20:44:00.446Z,0.70
2017-12-13T20:46:27.930Z,0.70
2017-12-13T20:48:55.422Z,0.60
2017-12-13T20:51:22.900Z,0.47
2017-12-13T20:53:50.562Z,0.90
2017-12-13T20:56:18.056Z,0.70
2017-12-13T20:58:45.548Z,0.70
2017-12-13T21:01:13.012Z,1.30
2017-12-13T21:03:40.485Z,0.90
2017-12-13T21:06:07.932Z,0.93
2017-12-13T21:08:35.396Z,0.53
2017-12-13T21:11:02.888Z,0.70
2017-12-13T21:13:30.376Z,0.60
2017-12-13T21:15:57.837Z,0.60
2017-12-13T21:18:25.316Z,0.60
2017-12-13T21:20:52.776Z,0.60
2017-12-13T21:23:20.249Z,0.50
2017-12-13T21:25:48.424Z,0.63
2017-12-13T21:28:15.897Z,0.40
2017-12-13T21:30:43.368Z,0.60
2017-12-13T21:33:10.876Z,0.60
2017-12-13T21:35:38.346Z,0.57
2017-12-13T21:38:05.801Z,0.40
2017-12-13T21:40:33.264Z,0.50
2017-12-13T21:43:00.714Z,0.37
2017-12-13T21:45:28.185Z,0.53
2017-12-13T21:47:55.622Z,0.57
2017-12-13T21:50:23.093Z,0.40
2017-12-13T21:52:50.537Z,0.60
2017-12-13T21:55:18.005Z,0.40
2017-12-13T21:57:45.457Z,0.47
2017-12-13T22:00:12.936Z,0.50
2017-12-13T22:02:40.392Z,0.50
2017-12-13T22:05:07.855Z,0.30
2017-12-13T22:07:35.291Z,0.40
2017-12-13T22:10:02.769Z,0.30
2017-12-13T22:12:30.225Z,0.30
2017-12-13T22:14:57.673Z,0.30
2017-12-13T22:17:25.144Z,0.37
2017-12-13T22:19:52.605Z,0.30
2017-12-13T22:22:20.105Z,0.40
2017-12-13T22:24:47.547Z,0.30
2017-12-13T22:27:15.022Z,0.30
2017-12-13T22:29:42.473Z,0.40
2017-12-13T22:32:09.937Z,0.30
2017-12-13T22:34:37.381Z,0.30
2017-12-13T22:37:04.917Z,0.30
2017-12-13T22:39:32.376Z,0.30
2017-12-13T22:41:59.835Z,0.40
2017-12-13T22:44:27.313Z,0.40
2017-12-13T22:46:54.877Z,0.30
2017-12-13T22:49:22.333Z,0.30
2017-12-13T22:51:49.822Z,0.30
2017-12-13T22:54:17.272Z,0.30
2017-12-13T22:56:44.720Z,0.30
2017-12-13T22:59:12.189Z,0.37
2017-12-13T23:01:39.644Z,0.20
2017-12-13T23:04:07.117Z,0.30
2017-12-13T23:06:34.574Z,0.70
2017-12-13T23:09:02.049Z,0.30
2017-12-13T23:11:29.505Z,0.30
2017-12-13T23:13:57.001Z,0.30
2017-12-13T23:16:24.461Z,0.20
2017-12-13T23:18:51.941Z,0.40
2017-12-13T23:21:19.401Z,0.33
2017-12-13T23:23:46.873Z,0.30
2017-12-13T23:26:14.329Z,0.30
2017-12-13T23:28:41.805Z,0.40
2017-12-13T23:31:09.302Z,0.63
2017-12-13T23:33:36.777Z,0.30
2017-12-13T23:36:04.240Z,0.40
2017-12-13T23:38:31.721Z,0.30
2017-12-13T23:40:59.176Z,0.30
2017-12-13T23:43:26.662Z,0.20
2017-12-13T23:45:54.117Z,0.30
2017-12-13T23:48:21.598Z,0.30
2017-12-13T23:50:49.092Z,0.40
2017-12-13T23:53:16.549Z,0.30
2017-12-13T23:55:44.069Z,0.40
2017-12-13T23:58:11.576Z,0.20
